sensor_id;sensor_type;location;lat;lon;timestamp;pressure;altitude;pressure_sealevel;temperature;humidity
70506;BME280;58032;49.820;6.274;2022-08-19T00:00:37;97412.41;;;16.16;78.20
70506;BME280;58032;49.820;6.274;2022-08-19T00:03:08;97417.91;;;16.25;77.92
70506;BME280;58032;49.820;6.274;2022-08-19T00:05:40;97413.31;;;16.28;77.81
70506;BME280;58032;49.820;6.274;2022-08-19T00:08:08;97411.78;;;16.33;77.74
70506;BME280;58032;49.820;6.274;2022-08-19T00:10:35;97415.00;;;16.46;77.30
70506;BME280;58032;49.820;6.274;2022-08-19T00:13:02;97424.06;;;16.50;76.91
70506;BME280;58032;49.820;6.274;2022-08-19T00:15:30;97416.06;;;16.49;76.82
70506;BME280;58032;49.820;6.274;2022-08-19T00:17:57;97427.19;;;16.52;76.78
70506;BME280;58032;49.820;6.274;2022-08-19T00:20:27;97425.69;;;16.57;76.59
70506;BME280;58032;49.820;6.274;2022-08-19T00:22:54;97426.72;;;16.59;76.82
70506;BME280;58032;49.820;6.274;2022-08-19T00:25:22;97425.72;;;16.63;76.63
70506;BME280;58032;49.820;6.274;2022-08-19T00:27:49;97430.84;;;16.58;76.46
70506;BME280;58032;49.820;6.274;2022-08-19T00:30:16;97430.31;;;16.54;76.47
70506;BME280;58032;49.820;6.274;2022-08-19T00:32:43;97425.41;;;16.55;76.69
70506;BME280;58032;49.820;6.274;2022-08-19T00:35:11;97416.34;;;16.51;76.99
70506;BME280;58032;49.820;6.274;2022-08-19T00:37:38;97416.34;;;16.51;77.15
70506;BME280;58032;49.820;6.274;2022-08-19T00:40:11;97418.09;;;16.48;76.87
70506;BME280;58032;49.820;6.274;2022-08-19T00:42:39;97413.16;;;16.43;77.45
70506;BME280;58032;49.820;6.274;2022-08-19T00:45:16;97410.50;;;16.34;77.87
70506;BME280;58032;49.820;6.274;2022-08-19T00:47:44;97412.78;;;16.29;78.10
70506;BME280;58032;49.820;6.274;2022-08-19T00:50:14;97405.50;;;16.23;78.29
70506;BME280;58032;49.820;6.274;2022-08-19T00:52:44;97409.84;;;16.18;78.75
70506;BME280;58032;49.820;6.274;2022-08-19T00:55:16;97407.84;;;16.24;78.64
70506;BME280;58032;49.820;6.274;2022-08-19T00:57:53;97404.22;;;16.24;78.45
70506;BME280;58032;49.820;6.274;2022-08-19T01:00:23;97395.91;;;16.20;78.68
70506;BME280;58032;49.820;6.274;2022-08-19T01:03:21;97395.03;;;16.08;78.87
70506;BME280;58032;49.820;6.274;2022-08-19T01:05:50;97389.53;;;15.99;79.43
70506;BME280;58032;49.820;6.274;2022-08-19T01:08:19;97391.53;;;15.93;80.02
70506;BME280;58032;49.820;6.274;2022-08-19T01:10:53;97392.03;;;15.91;80.34
70506;BME280;58032;49.820;6.274;2022-08-19T01:13:25;97384.16;;;15.80;80.55
70506;BME280;58032;49.820;6.274;2022-08-19T01:15:56;97384.38;;;15.77;80.64
70506;BME280;58032;49.820;6.274;2022-08-19T01:18:25;97390.22;;;15.67;81.04
70506;BME280;58032;49.820;6.274;2022-08-19T01:20:56;97391.78;;;15.69;81.21
70506;BME280;58032;49.820;6.274;2022-08-19T01:23:24;97399.56;;;15.74;80.88
70506;BME280;58032;49.820;6.274;2022-08-19T01:26:17;97407.50;;;15.90;80.28
70506;BME280;58032;49.820;6.274;2022-08-19T01:28:46;97401.28;;;15.86;80.53
70506;BME280;58032;49.820;6.274;2022-08-19T01:31:26;97391.69;;;15.83;80.22
70506;BME280;58032;49.820;6.274;2022-08-19T01:33:57;97389.03;;;15.80;80.82
70506;BME280;58032;49.820;6.274;2022-08-19T01:36:30;97386.94;;;15.75;80.78
70506;BME280;58032;49.820;6.274;2022-08-19T01:39:00;97389.38;;;15.61;80.92
70506;BME280;58032;49.820;6.274;2022-08-19T01:41:27;97387.75;;;15.55;81.90
70506;BME280;58032;49.820;6.274;2022-08-19T01:43:54;97384.13;;;15.54;81.96
70506;BME280;58032;49.820;6.274;2022-08-19T01:46:22;97383.09;;;15.51;81.62
70506;BME280;58032;49.820;6.274;2022-08-19T01:48:50;97379.88;;;15.44;82.35
70506;BME280;58032;49.820;6.274;2022-08-19T01:51:17;97388.06;;;15.36;82.81
70506;BME280;58032;49.820;6.274;2022-08-19T01:53:48;97399.81;;;15.29;83.62
70506;BME280;58032;49.820;6.274;2022-08-19T01:56:16;97396.06;;;15.38;82.92
70506;BME280;58032;49.820;6.274;2022-08-19T01:58:51;97408.13;;;15.32;83.17
70506;BME280;58032;49.820;6.274;2022-08-19T02:01:19;97403.31;;;15.39;82.92
70506;BME280;58032;49.820;6.274;2022-08-19T02:03:46;97400.38;;;15.33;83.03
70506;BME280;58032;49.820;6.274;2022-08-19T02:06:13;97396.50;;;15.30;83.53
70506;BME280;58032;49.820;6.274;2022-08-19T02:08:40;97400.03;;;15.25;83.46
70506;BME280;58032;49.820;6.274;2022-08-19T02:11:07;97386.94;;;15.28;83.93
70506;BME280;58032;49.820;6.274;2022-08-19T02:13:34;97395.84;;;15.21;83.86
70506;BME280;58032;49.820;6.274;2022-08-19T02:16:02;97391.59;;;15.10;84.32
70506;BME280;58032;49.820;6.274;2022-08-19T02:18:29;97397.47;;;15.07;84.82
70506;BME280;58032;49.820;6.274;2022-08-19T02:20:56;97396.47;;;15.10;84.86
70506;BME280;58032;49.820;6.274;2022-08-19T02:23:23;97400.38;;;15.12;85.10
70506;BME280;58032;49.820;6.274;2022-08-19T02:25:51;97396.00;;;15.11;84.92
70506;BME280;58032;49.820;6.274;2022-08-19T02:28:18;97396.75;;;15.12;85.47
70506;BME280;58032;49.820;6.274;2022-08-19T02:30:47;97400.59;;;15.09;85.80
70506;BME280;58032;49.820;6.274;2022-08-19T02:33:14;97400.59;;;15.09;86.10
70506;BME280;58032;49.820;6.274;2022-08-19T02:35:45;97396.28;;;15.13;85.92
70506;BME280;58032;49.820;6.274;2022-08-19T02:38:13;97392.44;;;15.16;86.09
70506;BME280;58032;49.820;6.274;2022-08-19T02:41:00;97391.47;;;15.19;86.01
70506;BME280;58032;49.820;6.274;2022-08-19T02:43:30;97390.75;;;15.25;85.90
70506;BME280;58032;49.820;6.274;2022-08-19T02:45:57;97390.81;;;15.30;85.42
70506;BME280;58032;49.820;6.274;2022-08-19T02:48:25;97396.28;;;15.34;84.75
70506;BME280;58032;49.820;6.274;2022-08-19T02:50:52;97399.75;;;15.23;85.85
70506;BME280;58032;49.820;6.274;2022-08-19T02:53:25;97399.75;;;15.23;86.00
70506;BME280;58032;49.820;6.274;2022-08-19T02:55:53;97401.25;;;15.18;85.25
70506;BME280;58032;49.820;6.274;2022-08-19T02:58:21;97406.19;;;15.24;85.79
70506;BME280;58032;49.820;6.274;2022-08-19T03:00:52;97406.63;;;15.16;86.21
70506;BME280;58032;49.820;6.274;2022-08-19T03:03:20;97411.78;;;15.18;86.33
70506;BME280;58032;49.820;6.274;2022-08-19T03:05:47;97415.94;;;15.17;86.80
70506;BME280;58032;49.820;6.274;2022-08-19T03:08:15;97416.06;;;15.08;87.44
70506;BME280;58032;49.820;6.274;2022-08-19T03:10:45;97420.28;;;15.18;86.71
70506;BME280;58032;49.820;6.274;2022-08-19T03:13:15;97415.41;;;15.18;87.17
70506;BME280;58032;49.820;6.274;2022-08-19T03:15:44;97411.78;;;15.18;86.92
70506;BME280;58032;49.820;6.274;2022-08-19T03:18:12;97414.16;;;15.19;86.63
70506;BME280;58032;49.820;6.274;2022-08-19T03:20:45;97411.66;;;15.27;85.76
70506;BME280;58032;49.820;6.274;2022-08-19T03:23:13;97415.34;;;15.33;85.41
70506;BME280;58032;49.820;6.274;2022-08-19T03:25:44;97419.94;;;15.31;85.95
70506;BME280;58032;49.820;6.274;2022-08-19T03:28:20;97421.19;;;15.24;86.45
70506;BME280;58032;49.820;6.274;2022-08-19T03:30:56;97415.50;;;15.24;85.93
70506;BME280;58032;49.820;6.274;2022-08-19T03:33:24;97421.38;;;15.21;86.21
70506;BME280;58032;49.820;6.274;2022-08-19T03:38:31;97426.59;;;15.07;87.20
70506;BME280;58032;49.820;6.274;2022-08-19T03:41:03;97425.25;;;15.02;87.82
70506;BME280;58032;49.820;6.274;2022-08-19T03:43:37;97427.00;;;15.00;87.68
70506;BME280;58032;49.820;6.274;2022-08-19T03:46:13;97424.19;;;15.00;87.91
70506;BME280;58032;49.820;6.274;2022-08-19T03:48:42;97432.84;;;14.76;89.40
70506;BME280;58032;49.820;6.274;2022-08-19T03:51:19;97425.81;;;14.86;88.45
70506;BME280;58032;49.820;6.274;2022-08-19T03:53:47;97432.34;;;14.92;88.63
70506;BME280;58032;49.820;6.274;2022-08-19T03:56:14;97437.09;;;15.01;88.68
70506;BME280;58032;49.820;6.274;2022-08-19T03:58:42;97442.75;;;15.01;87.60
70506;BME280;58032;49.820;6.274;2022-08-19T04:01:11;97435.94;;;14.93;88.12
70506;BME280;58032;49.820;6.274;2022-08-19T04:03:39;97441.34;;;14.76;88.53
70506;BME280;58032;49.820;6.274;2022-08-19T04:06:18;97434.81;;;14.54;89.25
70506;BME280;58032;49.820;6.274;2022-08-19T04:08:49;97439.91;;;14.35;89.49
70506;BME280;58032;49.820;6.274;2022-08-19T04:11:21;97430.06;;;14.16;89.78
70506;BME280;58032;49.820;6.274;2022-08-19T04:13:49;97421.94;;;14.08;90.71
70506;BME280;58032;49.820;6.274;2022-08-19T04:16:23;97420.09;;;14.05;91.61
70506;BME280;58032;49.820;6.274;2022-08-19T04:18:51;97428.28;;;13.88;91.77
70506;BME280;58032;49.820;6.274;2022-08-19T04:21:21;97430.63;;;13.90;93.14
70506;BME280;58032;49.820;6.274;2022-08-19T04:23:49;97421.94;;;14.08;93.27
70506;BME280;58032;49.820;6.274;2022-08-19T04:26:36;97429.56;;;14.17;93.51
70506;BME280;58032;49.820;6.274;2022-08-19T04:29:13;97432.09;;;14.30;93.02
70506;BME280;58032;49.820;6.274;2022-08-19T04:31:41;97434.03;;;14.39;92.41
70506;BME280;58032;49.820;6.274;2022-08-19T04:34:11;97436.97;;;14.45;92.17
70506;BME280;58032;49.820;6.274;2022-08-19T04:36:41;97443.81;;;14.53;91.61
70506;BME280;58032;49.820;6.274;2022-08-19T04:39:11;97445.19;;;14.57;91.91
70506;BME280;58032;49.820;6.274;2022-08-19T04:41:39;97444.78;;;14.50;92.10
70506;BME280;58032;49.820;6.274;2022-08-19T04:44:24;97445.78;;;14.47;92.46
70506;BME280;58032;49.820;6.274;2022-08-19T04:46:52;97448.50;;;14.41;91.47
70506;BME280;58032;49.820;6.274;2022-08-19T04:49:21;97453.50;;;14.31;92.04
70506;BME280;58032;49.820;6.274;2022-08-19T04:51:50;97453.97;;;14.30;91.48
70506;BME280;58032;49.820;6.274;2022-08-19T04:54:19;97453.09;;;14.38;91.92
70506;BME280;58032;49.820;6.274;2022-08-19T04:56:49;97443.03;;;14.37;92.56
70506;BME280;58032;49.820;6.274;2022-08-19T04:59:17;97447.84;;;14.31;93.34
70506;BME280;58032;49.820;6.274;2022-08-19T05:01:46;97454.34;;;14.22;93.00
70506;BME280;58032;49.820;6.274;2022-08-19T05:04:20;97454.34;;;14.22;93.25
70506;BME280;58032;49.820;6.274;2022-08-19T05:06:48;97456.78;;;14.30;93.36
70506;BME280;58032;49.820;6.274;2022-08-19T05:09:16;97450.16;;;14.48;93.33
70506;BME280;58032;49.820;6.274;2022-08-19T05:11:44;97450.56;;;14.70;91.88
70506;BME280;58032;49.820;6.274;2022-08-19T05:14:11;97451.72;;;14.79;91.17
70506;BME280;58032;49.820;6.274;2022-08-19T05:16:40;97449.75;;;14.85;91.15
70506;BME280;58032;49.820;6.274;2022-08-19T05:19:07;97468.59;;;14.88;90.89
70506;BME280;58032;49.820;6.274;2022-08-19T05:21:53;97463.59;;;14.98;90.68
70506;BME280;58032;49.820;6.274;2022-08-19T05:24:39;97469.00;;;15.16;89.42
70506;BME280;58032;49.820;6.274;2022-08-19T05:27:13;97481.41;;;15.19;89.04
70506;BME280;58032;49.820;6.274;2022-08-19T05:29:40;97482.16;;;15.34;88.23
70506;BME280;58032;49.820;6.274;2022-08-19T05:32:08;97486.13;;;15.43;87.37
70506;BME280;58032;49.820;6.274;2022-08-19T05:34:37;97481.09;;;15.52;87.17
70506;BME280;58032;49.820;6.274;2022-08-19T05:37:05;97479.91;;;15.39;87.64
70506;BME280;58032;49.820;6.274;2022-08-19T05:39:36;97477.91;;;15.45;87.96
70506;BME280;58032;49.820;6.274;2022-08-19T05:42:05;97465.56;;;15.48;88.03
70506;BME280;58032;49.820;6.274;2022-08-19T05:44:37;97465.50;;;15.42;88.27
70506;BME280;58032;49.820;6.274;2022-08-19T05:47:06;97457.38;;;15.76;87.26
70506;BME280;58032;49.820;6.274;2022-08-19T05:49:35;97475.00;;;15.80;86.32
70506;BME280;58032;49.820;6.274;2022-08-19T05:52:05;97473.25;;;15.83;86.13
70506;BME280;58032;49.820;6.274;2022-08-19T05:54:33;97482.16;;;15.76;86.27
70506;BME280;58032;49.820;6.274;2022-08-19T05:57:00;97475.72;;;15.96;85.71
70506;BME280;58032;49.820;6.274;2022-08-19T05:59:28;97484.56;;;16.04;85.37
70506;BME280;58032;49.820;6.274;2022-08-19T06:01:55;97477.78;;;16.48;83.64
70506;BME280;58032;49.820;6.274;2022-08-19T06:04:23;97481.75;;;16.88;81.85
70506;BME280;58032;49.820;6.274;2022-08-19T06:06:52;97477.44;;;16.67;81.20
70506;BME280;58032;49.820;6.274;2022-08-19T06:09:21;97479.22;;;16.64;81.86
70506;BME280;58032;49.820;6.274;2022-08-19T06:11:51;97483.34;;;16.63;82.26
70506;BME280;58032;49.820;6.274;2022-08-19T06:14:24;97489.34;;;16.71;82.07
70506;BME280;58032;49.820;6.274;2022-08-19T06:16:51;97489.56;;;16.93;81.82
70506;BME280;58032;49.820;6.274;2022-08-19T06:19:20;97488.66;;;17.08;81.09
70506;BME280;58032;49.820;6.274;2022-08-19T06:21:50;97481.06;;;17.37;79.36
70506;BME280;58032;49.820;6.274;2022-08-19T06:24:23;97487.88;;;17.56;77.93
70506;BME280;58032;49.820;6.274;2022-08-19T06:26:52;97489.56;;;17.86;76.51
70506;BME280;58032;49.820;6.274;2022-08-19T06:29:23;97481.88;;;17.98;76.90
70506;BME280;58032;49.820;6.274;2022-08-19T06:31:56;97474.47;;;18.34;76.08
70506;BME280;58032;49.820;6.274;2022-08-19T06:34:24;97483.03;;;18.86;72.18
70506;BME280;58032;49.820;6.274;2022-08-19T06:36:52;97487.69;;;18.83;72.88
70506;BME280;58032;49.820;6.274;2022-08-19T06:39:25;97493.16;;;19.09;71.98
70506;BME280;58032;49.820;6.274;2022-08-19T06:41:55;97494.41;;;19.31;70.93
70506;BME280;58032;49.820;6.274;2022-08-19T06:44:26;97498.69;;;19.83;69.95
70506;BME280;58032;49.820;6.274;2022-08-19T06:46:55;97497.66;;;19.81;68.21
70506;BME280;58032;49.820;6.274;2022-08-19T06:49:23;97493.25;;;19.91;67.78
70506;BME280;58032;49.820;6.274;2022-08-19T06:51:50;97502.31;;;19.89;68.02
70506;BME280;58032;49.820;6.274;2022-08-19T06:54:18;97499.44;;;19.95;67.70
70506;BME280;58032;49.820;6.274;2022-08-19T06:56:46;97506.72;;;19.90;67.50
70506;BME280;58032;49.820;6.274;2022-08-19T06:59:24;97510.34;;;19.97;68.29
70506;BME280;58032;49.820;6.274;2022-08-19T07:01:56;97521.16;;;20.21;66.91
70506;BME280;58032;49.820;6.274;2022-08-19T07:04:27;97522.91;;;19.65;67.38
70506;BME280;58032;49.820;6.274;2022-08-19T07:07:07;97528.16;;;19.38;69.97
70506;BME280;58032;49.820;6.274;2022-08-19T07:09:37;97533.47;;;20.52;66.11
70506;BME280;58032;49.820;6.274;2022-08-19T07:12:06;97532.78;;;20.82;64.97
70506;BME280;58032;49.820;6.274;2022-08-19T07:14:34;97534.38;;;21.08;63.70
70506;BME280;58032;49.820;6.274;2022-08-19T07:17:07;97531.47;;;21.44;62.56
70506;BME280;58032;49.820;6.274;2022-08-19T07:19:38;97530.41;;;21.96;60.46
70506;BME280;58032;49.820;6.274;2022-08-19T07:22:07;97532.38;;;22.26;59.49
70506;BME280;58032;49.820;6.274;2022-08-19T07:24:35;97527.78;;;21.74;60.15
70506;BME280;58032;49.820;6.274;2022-08-19T07:27:03;97537.44;;;21.95;60.78
70506;BME280;58032;49.820;6.274;2022-08-19T07:29:33;97532.91;;;22.06;60.54
70506;BME280;58032;49.820;6.274;2022-08-19T07:32:01;97538.34;;;21.85;59.98
70506;BME280;58032;49.820;6.274;2022-08-19T07:34:30;97532.84;;;22.69;57.18
70506;BME280;58032;49.820;6.274;2022-08-19T07:36:57;97523.06;;;23.56;55.17
70506;BME280;58032;49.820;6.274;2022-08-19T07:39:32;97535.75;;;22.06;58.74
70506;BME280;58032;49.820;6.274;2022-08-19T07:42:02;97533.69;;;22.25;59.31
70506;BME280;58032;49.820;6.274;2022-08-19T07:44:30;97530.69;;;21.93;60.32
70506;BME280;58032;49.820;6.274;2022-08-19T07:46:57;97531.47;;;23.41;56.14
70506;BME280;58032;49.820;6.274;2022-08-19T07:49:25;97533.91;;;23.63;53.51
70506;BME280;58032;49.820;6.274;2022-08-19T07:51:58;97530.00;;;23.47;54.44
70506;BME280;58032;49.820;6.274;2022-08-19T07:54:27;97536.47;;;23.94;54.02
70506;BME280;58032;49.820;6.274;2022-08-19T07:56:54;97530.81;;;24.28;52.26
70506;BME280;58032;49.820;6.274;2022-08-19T07:59:22;97542.47;;;24.71;50.97
70506;BME280;58032;49.820;6.274;2022-08-19T08:01:49;97538.16;;;25.41;50.37
70506;BME280;58032;49.820;6.274;2022-08-19T08:04:17;97538.06;;;25.33;49.06
70506;BME280;58032;49.820;6.274;2022-08-19T08:07:05;97528.47;;;25.81;45.95
70506;BME280;58032;49.820;6.274;2022-08-19T08:09:52;97538.31;;;26.14;45.60
70506;BME280;58032;49.820;6.274;2022-08-19T08:12:31;97532.31;;;26.49;44.99
70506;BME280;58032;49.820;6.274;2022-08-19T08:15:03;97535.31;;;25.70;45.49
70506;BME280;58032;49.820;6.274;2022-08-19T08:17:31;97537.44;;;24.37;49.36
70506;BME280;58032;49.820;6.274;2022-08-19T08:19:58;97534.31;;;25.67;48.01
70506;BME280;58032;49.820;6.274;2022-08-19T08:22:26;97539.25;;;26.09;47.30
70506;BME280;58032;49.820;6.274;2022-08-19T08:25:15;97536.66;;;25.26;48.39
70506;BME280;58032;49.820;6.274;2022-08-19T08:27:45;97539.16;;;26.30;46.79
70506;BME280;58032;49.820;6.274;2022-08-19T08:30:16;97536.59;;;26.71;43.33
70506;BME280;58032;49.820;6.274;2022-08-19T08:32:44;97537.00;;;26.75;45.18
70506;BME280;58032;49.820;6.274;2022-08-19T08:35:13;97532.66;;;28.06;41.09
70506;BME280;58032;49.820;6.274;2022-08-19T08:37:42;97530.19;;;27.71;41.98
70506;BME280;58032;49.820;6.274;2022-08-19T08:40:22;97533.84;;;27.33;43.71
70506;BME280;58032;49.820;6.274;2022-08-19T08:45:25;97527.19;;;28.74;39.24
70506;BME280;58032;49.820;6.274;2022-08-19T08:47:53;97524.88;;;28.32;39.78
70506;BME280;58032;49.820;6.274;2022-08-19T08:50:33;97516.91;;;27.60;40.51
70506;BME280;58032;49.820;6.274;2022-08-19T08:53:05;97527.41;;;25.20;45.34
70506;BME280;58032;49.820;6.274;2022-08-19T08:55:35;97536.66;;;24.36;47.98
70506;BME280;58032;49.820;6.274;2022-08-19T08:58:06;97529.63;;;24.10;49.70
70506;BME280;58032;49.820;6.274;2022-08-19T09:00:39;97528.06;;;24.09;50.61
70506;BME280;58032;49.820;6.274;2022-08-19T09:03:21;97528.19;;;24.17;50.71
70506;BME280;58032;49.820;6.274;2022-08-19T09:06:04;97526.97;;;24.60;48.52
70506;BME280;58032;49.820;6.274;2022-08-19T09:14:19;97523.88;;;24.93;48.16
70506;BME280;58032;49.820;6.274;2022-08-19T09:17:13;97518.34;;;24.95;48.71
70506;BME280;58032;49.820;6.274;2022-08-19T09:19:58;97518.34;;;25.16;48.50
70506;BME280;58032;49.820;6.274;2022-08-19T09:22:32;97522.09;;;25.74;46.99
70506;BME280;58032;49.820;6.274;2022-08-19T09:25:00;97531.56;;;26.56;44.93
70506;BME280;58032;49.820;6.274;2022-08-19T09:27:28;97526.78;;;25.35;47.33
70506;BME280;58032;49.820;6.274;2022-08-19T09:29:55;97523.38;;;24.33;49.53
70506;BME280;58032;49.820;6.274;2022-08-19T09:32:22;97525.16;;;24.36;49.66
70506;BME280;58032;49.820;6.274;2022-08-19T09:34:50;97518.53;;;24.76;48.39
70506;BME280;58032;49.820;6.274;2022-08-19T09:37:21;97514.44;;;24.71;48.67
70506;BME280;58032;49.820;6.274;2022-08-19T09:39:49;97520.72;;;23.54;50.69
70506;BME280;58032;49.820;6.274;2022-08-19T09:42:16;97522.75;;;23.60;50.99
70506;BME280;58032;49.820;6.274;2022-08-19T09:44:43;97517.91;;;24.70;47.80
70506;BME280;58032;49.820;6.274;2022-08-19T09:47:12;97508.09;;;24.38;47.91
70506;BME280;58032;49.820;6.274;2022-08-19T09:49:40;97513.38;;;24.47;48.62
70506;BME280;58032;49.820;6.274;2022-08-19T09:52:11;97516.44;;;24.97;47.44
70506;BME280;58032;49.820;6.274;2022-08-19T09:54:38;97518.09;;;24.10;49.30
70506;BME280;58032;49.820;6.274;2022-08-19T09:57:06;97518.97;;;23.51;51.08
70506;BME280;58032;49.820;6.274;2022-08-19T09:59:33;97522.28;;;23.42;51.42
70506;BME280;58032;49.820;6.274;2022-08-19T10:02:00;97520.22;;;24.10;50.62
70506;BME280;58032;49.820;6.274;2022-08-19T10:04:27;97520.44;;;23.98;50.45
70506;BME280;58032;49.820;6.274;2022-08-19T10:07:15;97515.75;;;23.42;51.89
70506;BME280;58032;49.820;6.274;2022-08-19T10:09:42;97517.84;;;24.22;50.76
70506;BME280;58032;49.820;6.274;2022-08-19T10:12:09;97521.72;;;23.57;51.33
70506;BME280;58032;49.820;6.274;2022-08-19T10:14:36;97511.97;;;23.01;53.15
70506;BME280;58032;49.820;6.274;2022-08-19T10:17:03;97520.19;;;22.77;53.58
70506;BME280;58032;49.820;6.274;2022-08-19T10:19:30;97516.88;;;23.06;53.34
70506;BME280;58032;49.820;6.274;2022-08-19T10:22:04;97513.47;;;23.67;50.77
70506;BME280;58032;49.820;6.274;2022-08-19T10:24:31;97503.06;;;23.91;51.12
70506;BME280;58032;49.820;6.274;2022-08-19T10:26:59;97500.06;;;24.58;49.66
70506;BME280;58032;49.820;6.274;2022-08-19T10:29:27;97494.78;;;25.47;47.55
70506;BME280;58032;49.820;6.274;2022-08-19T10:31:54;97492.91;;;25.07;48.25
70506;BME280;58032;49.820;6.274;2022-08-19T10:34:22;97500.63;;;24.91;47.79
70506;BME280;58032;49.820;6.274;2022-08-19T10:36:53;97511.59;;;23.96;50.01
70506;BME280;58032;49.820;6.274;2022-08-19T10:39:20;97504.53;;;24.45;49.33
70506;BME280;58032;49.820;6.274;2022-08-19T10:41:47;97514.66;;;24.60;48.75
70506;BME280;58032;49.820;6.274;2022-08-19T10:44:14;97505.47;;;24.96;48.74
70506;BME280;58032;49.820;6.274;2022-08-19T10:46:44;97510.81;;;25.34;46.78
70506;BME280;58032;49.820;6.274;2022-08-19T10:49:14;97510.38;;;24.53;47.78
70506;BME280;58032;49.820;6.274;2022-08-19T10:51:41;97507.38;;;24.24;46.75
70506;BME280;58032;49.820;6.274;2022-08-19T10:54:45;97504.19;;;24.49;45.69
70506;BME280;58032;49.820;6.274;2022-08-19T10:57:30;97493.50;;;24.36;45.19
70506;BME280;58032;49.820;6.274;2022-08-19T11:00:06;97487.88;;;24.65;44.28
70506;BME280;58032;49.820;6.274;2022-08-19T11:02:33;97493.19;;;24.61;46.14
70506;BME280;58032;49.820;6.274;2022-08-19T11:05:01;97492.25;;;24.79;43.75
70506;BME280;58032;49.820;6.274;2022-08-19T11:07:30;97485.53;;;24.77;43.56
70506;BME280;58032;49.820;6.274;2022-08-19T11:09:57;97492.75;;;24.70;44.59
70506;BME280;58032;49.820;6.274;2022-08-19T11:12:24;97494.66;;;24.89;44.07
70506;BME280;58032;49.820;6.274;2022-08-19T11:14:51;97498.13;;;25.37;42.38
70506;BME280;58032;49.820;6.274;2022-08-19T11:17:19;97489.22;;;25.27;42.33
70506;BME280;58032;49.820;6.274;2022-08-19T11:19:46;97490.16;;;25.01;42.28
70506;BME280;58032;49.820;6.274;2022-08-19T11:22:15;97491.59;;;25.37;41.65
70506;BME280;58032;49.820;6.274;2022-08-19T11:24:42;97500.00;;;25.27;41.94
70506;BME280;58032;49.820;6.274;2022-08-19T11:27:10;97486.53;;;25.80;40.69
70506;BME280;58032;49.820;6.274;2022-08-19T11:29:38;97479.34;;;26.02;40.56
70506;BME280;58032;49.820;6.274;2022-08-19T11:32:07;97488.41;;;25.40;40.89
70506;BME280;58032;49.820;6.274;2022-08-19T11:34:36;97497.50;;;24.33;42.41
70506;BME280;58032;49.820;6.274;2022-08-19T11:37:03;97490.59;;;24.49;41.80
70506;BME280;58032;49.820;6.274;2022-08-19T11:39:31;97489.50;;;24.74;41.00
70506;BME280;58032;49.820;6.274;2022-08-19T11:42:00;97491.81;;;24.41;39.73
70506;BME280;58032;49.820;6.274;2022-08-19T11:44:29;97487.00;;;24.91;39.20
70506;BME280;58032;49.820;6.274;2022-08-19T11:47:00;97492.94;;;24.38;39.17
70506;BME280;58032;49.820;6.274;2022-08-19T11:49:27;97496.97;;;24.21;38.42
70506;BME280;58032;49.820;6.274;2022-08-19T11:51:54;97487.75;;;24.92;36.87
70506;BME280;58032;49.820;6.274;2022-08-19T11:54:21;97491.53;;;25.29;37.86
70506;BME280;58032;49.820;6.274;2022-08-19T11:56:48;97490.03;;;25.86;37.84
70506;BME280;58032;49.820;6.274;2022-08-19T11:59:15;97487.00;;;26.28;36.50
70506;BME280;58032;49.820;6.274;2022-08-19T12:01:42;97485.44;;;25.90;36.87
70506;BME280;58032;49.820;6.274;2022-08-19T12:04:10;97477.69;;;25.78;36.53
70506;BME280;58032;49.820;6.274;2022-08-19T12:06:39;97482.53;;;25.54;38.27
70506;BME280;58032;49.820;6.274;2022-08-19T12:09:08;97479.34;;;26.02;37.94
70506;BME280;58032;49.820;6.274;2022-08-19T12:11:37;97478.66;;;25.51;38.44
70506;BME280;58032;49.820;6.274;2022-08-19T12:14:05;97480.78;;;25.80;38.71
70506;BME280;58032;49.820;6.274;2022-08-19T12:16:32;97483.00;;;24.73;41.07
70506;BME280;58032;49.820;6.274;2022-08-19T12:19:00;97487.16;;;25.07;40.76
70506;BME280;58032;49.820;6.274;2022-08-19T12:21:32;97482.84;;;24.79;41.07
70506;BME280;58032;49.820;6.274;2022-08-19T12:24:01;97483.78;;;24.26;42.12
70506;BME280;58032;49.820;6.274;2022-08-19T12:26:30;97488.25;;;25.25;40.48
70506;BME280;58032;49.820;6.274;2022-08-19T12:28:58;97482.41;;;25.38;39.19
70506;BME280;58032;49.820;6.274;2022-08-19T12:31:29;97469.66;;;25.55;39.00
70506;BME280;58032;49.820;6.274;2022-08-19T12:33:57;97484.63;;;26.11;38.38
70506;BME280;58032;49.820;6.274;2022-08-19T12:36:24;97474.66;;;26.20;37.60
70506;BME280;58032;49.820;6.274;2022-08-19T12:38:52;97469.94;;;26.01;39.22
70506;BME280;58032;49.820;6.274;2022-08-19T12:41:20;97483.81;;;25.45;40.57
70506;BME280;58032;49.820;6.274;2022-08-19T12:43:49;97468.63;;;25.73;40.27
70506;BME280;58032;49.820;6.274;2022-08-19T12:46:18;97476.16;;;25.26;41.09
70506;BME280;58032;49.820;6.274;2022-08-19T12:48:45;97464.50;;;25.61;40.47
70506;BME280;58032;49.820;6.274;2022-08-19T12:51:15;97463.97;;;26.51;37.63
70506;BME280;58032;49.820;6.274;2022-08-19T12:53:42;97455.81;;;26.94;36.71
70506;BME280;58032;49.820;6.274;2022-08-19T12:56:11;97456.59;;;28.13;34.13
70506;BME280;58032;49.820;6.274;2022-08-19T12:58:38;97449.16;;;27.87;32.39
70506;BME280;58032;49.820;6.274;2022-08-19T13:01:08;97469.22;;;26.09;36.38
70506;BME280;58032;49.820;6.274;2022-08-19T13:03:35;97468.75;;;26.41;37.88
70506;BME280;58032;49.820;6.274;2022-08-19T13:06:06;97453.88;;;26.97;37.68
70506;BME280;58032;49.820;6.274;2022-08-19T13:08:34;97453.94;;;28.00;36.79
70506;BME280;58032;49.820;6.274;2022-08-19T13:11:12;97457.09;;;28.68;35.36
70506;BME280;58032;49.820;6.274;2022-08-19T13:13:42;97467.66;;;27.99;36.71
70506;BME280;58032;49.820;6.274;2022-08-19T13:16:10;97465.69;;;28.02;36.80
70506;BME280;58032;49.820;6.274;2022-08-19T13:18:39;97472.22;;;26.03;40.42
70506;BME280;58032;49.820;6.274;2022-08-19T13:21:08;97476.25;;;26.36;39.40
70506;BME280;58032;49.820;6.274;2022-08-19T13:23:35;97477.94;;;26.92;39.52
70506;BME280;58032;49.820;6.274;2022-08-19T13:26:06;97472.75;;;27.52;37.43